createdAt,value
2022-10-23T00:00:28.358Z,9.70
2022-10-23T00:05:30.302Z,9.60
2022-10-23T00:10:32.053Z,9.60
2022-10-23T00:15:35.821Z,9.60
2022-10-23T00:20:37.630Z,9.60
2022-10-23T00:25:39.373Z,9.60
2022-10-23T00:30:41.230Z,9.60
2022-10-23T00:35:43.230Z,9.70
2022-10-23T00:40:47.121Z,9.70
2022-10-23T00:45:49.352Z,9.70
2022-10-23T00:50:51.305Z,9.70
2022-10-23T00:55:55.852Z,9.60
2022-10-23T01:00:57.905Z,9.60
2022-10-23T01:06:11.650Z,9.60
2022-10-23T01:11:30.670Z,9.50
2022-10-23T01:17:00.194Z,9.50
2022-10-23T01:27:34.335Z,9.30
2022-10-23T01:32:52.222Z,9.20
2022-10-23T01:38:02.322Z,9.20
2022-10-23T01:43:16.490Z,9.20
2022-10-23T01:48:22.273Z,9.10
2022-10-23T01:53:27.589Z,9.20
2022-10-23T01:58:34.504Z,9.10
2022-10-23T02:03:39.312Z,9.20
2022-10-23T02:08:41.796Z,9.20
2022-10-23T02:14:13.622Z,9.20
2022-10-23T02:19:25.246Z,9.20
2022-10-23T02:24:38.581Z,9.20
2022-10-23T02:29:48.364Z,9.20
2022-10-23T02:34:51.370Z,9.10
2022-10-23T02:39:54.150Z,9.20
2022-10-23T02:45:09.057Z,9.30
2022-10-23T02:50:27.405Z,9.10
2022-10-23T02:55:35.902Z,9.00
2022-10-23T03:00:41.288Z,9.00
2022-10-23T03:05:44.957Z,8.90
2022-10-23T03:15:58.425Z,8.80
2022-10-23T03:21:02.157Z,8.90
2022-10-23T03:26:03.923Z,8.80
2022-10-23T03:31:17.761Z,8.70
2022-10-23T03:36:20.726Z,8.70
2022-10-23T03:41:22.470Z,8.70
2022-10-23T03:46:24.804Z,8.70
2022-10-23T03:51:29.886Z,8.60
2022-10-23T03:56:32.682Z,8.50
2022-10-23T04:01:34.893Z,8.50
2022-10-23T04:06:37.316Z,8.50
2022-10-23T04:11:39.531Z,8.40
2022-10-23T04:16:41.499Z,8.40
2022-10-23T04:21:44.247Z,8.30
2022-10-23T04:26:47.070Z,8.30
2022-10-23T04:31:49.151Z,8.20
2022-10-23T04:36:51.731Z,8.10
2022-10-23T04:41:53.909Z,8.10
2022-10-23T04:46:56.232Z,8.10
2022-10-23T04:51:59.433Z,8.00
2022-10-23T04:57:10.071Z,8.00
2022-10-23T05:02:28.783Z,8.00
2022-10-23T05:07:30.788Z,7.90
2022-10-23T05:12:40.537Z,7.90
2022-10-23T05:17:44.998Z,7.90
2022-10-23T05:22:50.428Z,7.90
2022-10-23T05:27:55.366Z,7.90
2022-10-23T05:32:57.260Z,7.80
2022-10-23T05:38:02.234Z,7.80
2022-10-23T05:43:04.312Z,7.80
2022-10-23T05:48:34.326Z,7.80
2022-10-23T05:53:59.334Z,7.80
2022-10-23T05:59:23.093Z,7.80
2022-10-23T06:04:54.102Z,7.80
2022-10-23T06:10:08.329Z,7.90
2022-10-23T06:15:15.059Z,7.90
2022-10-23T06:20:38.623Z,7.90
2022-10-23T06:25:51.638Z,8.00
2022-10-23T06:30:53.923Z,8.00
2022-10-23T06:35:58.885Z,8.10
2022-10-23T06:41:00.890Z,8.20
2022-10-23T06:46:09.878Z,8.40
2022-10-23T06:51:30.441Z,8.50
2022-10-23T06:56:32.559Z,8.40
2022-10-23T07:01:36.108Z,8.50
2022-10-23T07:06:38.001Z,8.60
2022-10-23T07:11:40.201Z,8.70
2022-10-23T07:16:42.034Z,8.90
2022-10-23T07:21:44.795Z,9.00
2022-10-23T07:27:00.835Z,9.00
2022-10-23T07:32:04.608Z,9.10
2022-10-23T07:37:25.148Z,9.20
2022-10-23T07:42:27.101Z,9.30
2022-10-23T07:47:29.346Z,9.40
2022-10-23T07:52:35.028Z,9.50
2022-10-23T07:57:48.446Z,9.70
2022-10-23T08:03:07.641Z,9.70
2022-10-23T08:08:09.386Z,9.80
2022-10-23T08:13:15.643Z,9.90
2022-10-23T08:18:31.743Z,9.90
2022-10-23T08:23:33.783Z,9.90
2022-10-23T08:28:36.395Z,10.00
2022-10-23T08:33:39.179Z,10.10
2022-10-23T08:38:41.189Z,10.20
2022-10-23T08:43:51.006Z,10.30
2022-10-23T08:49:14.245Z,10.30
2022-10-23T08:54:34.209Z,10.40
2022-10-23T08:59:47.007Z,10.60
2022-10-23T09:04:51.876Z,10.80
2022-10-23T09:10:25.669Z,10.90
2022-10-23T09:15:30.656Z,11.00
2022-10-23T09:20:35.154Z,11.20
2022-10-23T09:25:42.118Z,11.50
2022-10-23T09:30:45.259Z,11.60
2022-10-23T09:36:03.004Z,11.60
2022-10-23T09:41:39.212Z,11.60
2022-10-23T09:46:43.727Z,11.60
2022-10-23T09:52:02.608Z,11.60
2022-10-23T09:57:25.735Z,11.70
2022-10-23T10:02:32.022Z,11.80
2022-10-23T10:08:00.323Z,12.00
2022-10-23T10:13:11.850Z,12.20
2022-10-23T10:18:45.244Z,12.40
2022-10-23T10:23:56.038Z,12.60
2022-10-23T10:29:25.765Z,12.70
2022-10-23T10:35:12.141Z,12.60
2022-10-23T10:40:29.713Z,12.60
2022-10-23T10:45:41.690Z,12.60
2022-10-23T10:51:05.965Z,12.80
2022-10-23T10:56:25.643Z,12.90
2022-10-23T11:01:41.218Z,13.20
2022-10-23T11:06:46.426Z,13.50
2022-10-23T11:11:49.129Z,13.70
2022-10-23T11:16:54.745Z,14.00
2022-10-23T11:22:08.819Z,14.10
2022-10-23T11:27:35.471Z,14.20
2022-10-23T11:32:55.322Z,14.20
2022-10-23T11:37:59.607Z,14.30
2022-10-23T11:43:01.646Z,14.20
2022-10-23T11:48:21.540Z,14.20
2022-10-23T11:53:32.437Z,14.30
2022-10-23T11:58:45.625Z,14.40
2022-10-23T12:04:16.527Z,14.50
2022-10-23T12:09:30.424Z,14.60
2022-10-23T12:14:51.220Z,15.00
2022-10-23T12:19:55.781Z,15.10
2022-10-23T12:25:04.990Z,15.10
2022-10-23T12:30:17.417Z,15.40
2022-10-23T12:35:49.722Z,15.60
2022-10-23T12:40:54.185Z,15.70
2022-10-23T12:46:00.579Z,15.90
2022-10-23T12:51:02.351Z,16.10
2022-10-23T12:56:05.718Z,16.40
2022-10-23T13:01:07.736Z,16.40
2022-10-23T13:06:11.463Z,16.40
2022-10-23T13:11:18.874Z,16.40
2022-10-23T13:16:23.617Z,16.50
2022-10-23T13:21:29.645Z,16.40
2022-10-23T13:26:47.953Z,16.30
2022-10-23T13:31:50.677Z,16.20
2022-10-23T13:37:20.310Z,16.20
2022-10-23T13:42:22.131Z,16.10
2022-10-23T13:47:24.021Z,16.20
2022-10-23T13:52:25.787Z,16.20
2022-10-23T13:57:27.553Z,16.20
2022-10-23T14:02:29.383Z,16.20
2022-10-23T14:07:31.201Z,16.10
2022-10-23T14:12:42.226Z,16.10
2022-10-23T14:17:44.240Z,15.90
2022-10-23T14:22:46.404Z,15.90
2022-10-23T14:27:48.648Z,15.70
2022-10-23T14:32:50.790Z,15.60
2022-10-23T14:37:52.556Z,15.50
2022-10-23T14:42:54.277Z,15.50
2022-10-23T14:47:56.262Z,15.40
2022-10-23T14:52:58.100Z,15.40
2022-10-23T14:57:59.844Z,15.30
2022-10-23T15:03:01.595Z,15.20
2022-10-23T15:08:03.333Z,15.20
2022-10-23T15:13:05.107Z,15.10
2022-10-23T15:18:07.070Z,15.00
2022-10-23T15:23:10.370Z,14.90
2022-10-23T15:28:12.176Z,14.80
2022-10-23T15:33:19.097Z,14.60
2022-10-23T15:38:22.514Z,14.40
2022-10-23T15:43:24.259Z,14.30
2022-10-23T15:48:25.997Z,14.20
2022-10-23T15:53:27.745Z,14.00
2022-10-23T15:58:29.582Z,13.80
2022-10-23T16:03:31.471Z,13.70
2022-10-23T16:08:33.265Z,13.60
2022-10-23T16:13:35.026Z,13.50
2022-10-23T16:18:37.231Z,13.40
2022-10-23T16:23:38.959Z,13.20
2022-10-23T16:28:43.270Z,13.10
2022-10-23T16:33:45.223Z,12.90
2022-10-23T16:41:07.043Z,12.70
2022-10-23T16:46:29.084Z,12.50
2022-10-23T16:51:31.626Z,12.30
2022-10-23T16:56:33.370Z,12.10
2022-10-23T17:01:35.343Z,12.00
2022-10-23T17:06:37.510Z,11.90
2022-10-23T17:11:40.282Z,11.90
2022-10-23T17:16:45.934Z,11.80
2022-10-23T17:21:47.756Z,11.70
2022-10-23T17:26:49.779Z,11.70
2022-10-23T17:31:51.693Z,11.60
2022-10-23T17:36:54.880Z,11.50
2022-10-23T17:41:57.111Z,11.50
2022-10-23T17:46:58.975Z,11.50
2022-10-23T17:52:01.818Z,11.40
2022-10-23T17:57:03.599Z,11.40
2022-10-23T18:02:05.574Z,11.50
2022-10-23T18:07:07.451Z,11.40
2022-10-23T18:12:09.174Z,11.40
2022-10-23T18:17:10.886Z,11.40
2022-10-23T18:22:12.646Z,11.40
2022-10-23T18:27:14.391Z,11.30
2022-10-23T18:32:16.295Z,11.30
2022-10-23T18:37:18.034Z,11.30
2022-10-23T18:42:19.750Z,11.30
2022-10-23T18:47:21.516Z,11.30
2022-10-23T18:52:23.239Z,11.20
2022-10-23T18:57:25.010Z,11.10
2022-10-23T19:02:27.638Z,11.10
2022-10-23T19:07:29.769Z,11.10
2022-10-23T19:12:31.506Z,11.10
2022-10-23T19:17:33.296Z,11.20
2022-10-23T19:22:36.719Z,11.20
2022-10-23T19:27:39.858Z,11.20
2022-10-23T19:32:42.739Z,11.20
2022-10-23T19:37:44.991Z,11.20
2022-10-23T19:42:47.012Z,11.10
2022-10-23T19:47:48.994Z,11.20
2022-10-23T19:52:50.732Z,11.10
2022-10-23T19:57:52.466Z,11.10
2022-10-23T20:02:55.410Z,11.10
2022-10-23T20:07:57.283Z,11.10
2022-10-23T20:13:15.069Z,11.10
2022-10-23T20:18:20.723Z,11.10
2022-10-23T20:23:22.758Z,11.10
2022-10-23T20:28:24.503Z,11.10
2022-10-23T20:33:26.225Z,11.10
2022-10-23T20:38:27.994Z,11.10
2022-10-23T20:43:32.198Z,11.20
2022-10-23T20:48:38.488Z,11.20
2022-10-23T20:53:41.462Z,11.20
2022-10-23T20:58:43.283Z,11.30
2022-10-23T21:03:50.233Z,11.40
2022-10-23T21:09:01.251Z,11.40
2022-10-23T21:14:04.340Z,11.50
2022-10-23T21:19:06.998Z,11.50
2022-10-23T21:24:14.864Z,11.50
2022-10-23T21:29:19.340Z,11.50
2022-10-23T21:34:23.055Z,11.60
2022-10-23T21:39:24.874Z,11.60
2022-10-23T21:44:26.681Z,11.60
2022-10-23T21:49:28.454Z,11.70
2022-10-23T21:54:30.216Z,11.70
2022-10-23T21:59:35.458Z,11.80
2022-10-23T22:04:37.997Z,11.70
2022-10-23T22:09:39.749Z,11.80
2022-10-23T22:14:42.478Z,11.80
2022-10-23T22:19:44.371Z,11.90
2022-10-23T22:24:46.164Z,11.90
2022-10-23T22:29:47.887Z,11.90
2022-10-23T22:34:53.118Z,11.90
2022-10-23T22:39:55.252Z,11.90
2022-10-23T22:44:56.970Z,11.90
2022-10-23T22:49:58.697Z,11.90
2022-10-23T22:55:00.418Z,11.90
2022-10-23T23:00:02.164Z,11.90
2022-10-23T23:05:04.230Z,11.90
2022-10-23T23:10:06.330Z,12.00
2022-10-23T23:15:08.771Z,12.00
2022-10-23T23:20:11.181Z,12.00
2022-10-23T23:25:13.053Z,12.00
2022-10-23T23:30:14.850Z,12.00
2022-10-23T23:35:16.930Z,12.00
2022-10-23T23:40:18.759Z,12.00
2022-10-23T23:45:20.485Z,12.10
2022-10-23T23:50:22.251Z,12.10
2022-10-23T23:55:23.993Z,12.10
